Time,TemperatureF,DewpointF,PressureIn,WindDirection,WindDirectionDegrees,WindSpeedMPH,WindSpeedGustMPH,Humidity,HourlyPrecipIn,Conditions,Clouds,dailyrainin,SoftwareType,DateUTC
2013-01-02 00:00:00,36.0,35.0,30.41,North,0,0.0,-999.0,95,-99.99,,,-99.99,,2013-01-02 08:00:00,
2013-01-02 00:21:00,36.0,35.0,30.41,North,0,0.0,-999.0,95,-99.99,,,-99.99,,2013-01-02 08:21:00,
2013-01-02 00:32:00,36.0,35.0,30.41,North,0,0.0,-999.0,95,-99.99,,,-99.99,,2013-01-02 08:32:00,
2013-01-02 00:42:00,36.0,35.0,30.41,North,0,0.0,-999.0,95,-99.99,,,-99.99,,2013-01-02 08:42:00,
2013-01-02 00:52:00,36.0,35.0,30.41,North,0,0.0,-999.0,95,-99.99,,,-99.99,,2013-01-02 08:52:00,
2013-01-02 01:00:00,36.0,35.0,30.39,NW,310,2.0,-999.0,97,-99.99,,,-99.99,,2013-01-02 09:00:00,
2013-01-02 01:22:00,36.0,35.0,30.39,NW,310,2.0,-999.0,97,-99.99,,,-99.99,,2013-01-02 09:22:00,
2013-01-02 01:32:00,36.0,35.0,30.39,NW,310,2.0,-999.0,97,-99.99,,,-99.99,,2013-01-02 09:32:00,
2013-01-02 01:42:00,36.0,35.0,30.39,NW,310,2.0,-999.0,97,-99.99,,,-99.99,,2013-01-02 09:42:00,
2013-01-02 01:52:00,36.0,35.0,30.39,NW,310,2.0,-999.0,97,-99.99,,,-99.99,,2013-01-02 09:52:00,
2013-01-02 02:00:00,36.0,35.0,30.37,NW,310,2.0,-999.0,96,-99.99,,,-99.99,,2013-01-02 10:00:00,
2013-01-02 02:22:00,36.0,35.0,30.37,NW,310,2.0,-999.0,96,-99.99,,,-99.99,,2013-01-02 10:22:00,
2013-01-02 02:32:00,36.0,35.0,30.37,NW,310,2.0,-999.0,96,-99.99,,,-99.99,,2013-01-02 10:32:00,
2013-01-02 02:42:00,36.0,35.0,30.37,NW,310,2.0,-999.0,96,-99.99,,,-99.99,,2013-01-02 10:42:00,
2013-01-02 02:52:00,36.0,35.0,30.37,NW,310,2.0,-999.0,96,-99.99,,,-99.99,,2013-01-02 10:52:00,
2013-01-02 03:00:00,36.0,34.0,30.37,NNW,340,2.0,-999.0,93,-99.99,,,-99.99,,2013-01-02 11:00:00,
2013-01-02 03:22:00,36.0,34.0,30.37,NNW,340,2.0,-999.0,93,-99.99,,,-99.99,,2013-01-02 11:22:00,
2013-01-02 03:32:00,36.0,34.0,30.37,NNW,340,2.0,-999.0,93,-99.99,,,-99.99,,2013-01-02 11:32:00,
2013-01-02 03:42:00,36.0,34.0,30.37,NNW,340,2.0,-999.0,93,-99.99,,,-99.99,,2013-01-02 11:42:00,
2013-01-02 03:52:00,36.0,34.0,30.37,NNW,340,2.0,-999.0,93,-99.99,,,-99.99,,2013-01-02 11:52:00,
2013-01-02 04:00:00,35.0,34.0,30.36,NW,310,8.0,-999.0,95,-99.99,,,-99.99,,2013-01-02 12:00:00,
2013-01-02 04:22:00,35.0,34.0,30.36,NW,310,8.0,-999.0,95,-99.99,,,-99.99,,2013-01-02 12:22:00,
2013-01-02 04:32:00,35.0,34.0,30.36,NW,310,8.0,-999.0,95,-99.99,,,-99.99,,2013-01-02 12:32:00,
2013-01-02 04:42:00,35.0,34.0,30.36,NW,310,8.0,-999.0,95,-99.99,,,-99.99,,2013-01-02 12:42:00,
2013-01-02 04:52:00,35.0,34.0,30.36,NW,310,8.0,-999.0,95,-99.99,,,-99.99,,2013-01-02 12:52:00,
2013-01-02 05:00:00,35.0,34.0,30.35,NW,320,5.0,-999.0,96,-99.99,,,-99.99,,2013-01-02 13:00:00,
2013-01-02 05:22:00,35.0,34.0,30.35,NW,320,5.0,-999.0,96,-99.99,,,-99.99,,2013-01-02 13:22:00,
2013-01-02 05:32:00,35.0,34.0,30.35,NW,320,5.0,-999.0,96,-99.99,,,-99.99,,2013-01-02 13:32:00,
2013-01-02 05:42:00,35.0,34.0,30.35,NW,320,5.0,-999.0,96,-99.99,,,-99.99,,2013-01-02 13:42:00,
2013-01-02 05:52:00,35.0,34.0,30.35,NW,320,5.0,-999.0,96,-99.99,,,-99.99,,2013-01-02 13:52:00,
2013-01-02 06:00:00,35.0,33.0,30.33,NW,310,8.0,-999.0,94,-99.99,,,-99.99,,2013-01-02 14:00:00,
2013-01-02 06:22:00,35.0,33.0,30.33,NW,310,8.0,-999.0,94,-99.99,,,-99.99,,2013-01-02 14:22:00,
2013-01-02 06:32:00,35.0,33.0,30.33,NW,310,8.0,-999.0,94,-99.99,,,-99.99,,2013-01-02 14:32:00,
2013-01-02 06:42:00,35.0,33.0,30.33,NW,310,8.0,-999.0,94,-99.99,,,-99.99,,2013-01-02 14:42:00,
2013-01-02 06:53:00,35.0,33.0,30.33,NW,310,8.0,-999.0,94,-99.99,,,-99.99,,2013-01-02 14:53:00,
2013-01-02 07:00:00,35.0,33.0,30.32,NW,320,2.0,-999.0,93,-99.99,,,-99.99,,2013-01-02 15:00:00,
2013-01-02 07:22:00,35.0,33.0,30.32,NW,320,2.0,-999.0,93,-99.99,,,-99.99,,2013-01-02 15:22:00,
2013-01-02 07:32:00,35.0,33.0,30.32,NW,320,2.0,-999.0,93,-99.99,,,-99.99,,2013-01-02 15:32:00,
2013-01-02 07:42:00,35.0,33.0,30.32,NW,320,2.0,-999.0,93,-99.99,,,-99.99,,2013-01-02 15:42:00,
2013-01-02 07:52:00,35.0,33.0,30.32,NW,320,2.0,-999.0,93,-99.99,,,-99.99,,2013-01-02 15:52:00,
2013-01-02 08:00:00,35.0,33.0,30.32,NNW,330,2.0,-999.0,94,-99.99,,,-99.99,,2013-01-02 16:00:00,
2013-01-02 08:22:00,35.0,33.0,30.32,NNW,330,2.0,-999.0,94,-99.99,,,-99.99,,2013-01-02 16:22:00,
2013-01-02 08:32:00,35.0,33.0,30.32,NNW,330,2.0,-999.0,94,-99.99,,,-99.99,,2013-01-02 16:32:00,
2013-01-02 08:42:00,35.0,33.0,30.32,NNW,330,2.0,-999.0,94,-99.99,,,-99.99,,2013-01-02 16:42:00,
2013-01-02 08:52:00,35.0,33.0,30.32,NNW,330,2.0,-999.0,94,-99.99,,,-99.99,,2013-01-02 16:52:00,
2013-01-02 09:00:00,35.0,33.0,30.32,NW,310,3.0,-999.0,94,-99.99,,,-99.99,,2013-01-02 17:00:00,
2013-01-02 09:22:00,35.0,33.0,30.32,NW,310,3.0,-999.0,94,-99.99,,,-99.99,,2013-01-02 17:22:00,
2013-01-02 09:32:00,35.0,33.0,30.32,NW,310,3.0,-999.0,94,-99.99,,,-99.99,,2013-01-02 17:32:00,
2013-01-02 09:42:00,35.0,33.0,30.32,NW,310,3.0,-999.0,94,-99.99,,,-99.99,,2013-01-02 17:42:00,
2013-01-02 09:53:00,35.0,33.0,30.32,NW,310,3.0,-999.0,94,-99.99,,,-99.99,,2013-01-02 17:53:00,
2013-01-02 10:00:00,37.0,36.0,30.33,West,260,2.0,-999.0,94,-99.99,,,-99.99,,2013-01-02 18:00:00,
2013-01-02 10:22:00,37.0,36.0,30.33,West,260,2.0,-999.0,94,-99.99,,,-99.99,,2013-01-02 18:22:00,
2013-01-02 10:32:00,37.0,36.0,30.33,West,260,2.0,-999.0,94,-99.99,,,-99.99,,2013-01-02 18:32:00,
2013-01-02 10:42:00,37.0,36.0,30.33,West,260,2.0,-999.0,94,-99.99,,,-99.99,,2013-01-02 18:42:00,
2013-01-02 10:52:00,37.0,36.0,30.33,West,260,2.0,-999.0,94,-99.99,,,-99.99,,2013-01-02 18:52:00,
2013-01-02 11:00:00,37.0,33.0,30.33,WNW,290,5.0,-999.0,84,-99.99,,,-99.99,,2013-01-02 19:00:00,
2013-01-02 11:22:00,37.0,33.0,30.33,WNW,290,5.0,-999.0,84,-99.99,,,-99.99,,2013-01-02 19:22:00,
2013-01-02 11:32:00,37.0,33.0,30.33,WNW,290,5.0,-999.0,84,-99.99,,,-99.99,,2013-01-02 19:32:00,
2013-01-02 11:42:00,37.0,33.0,30.33,WNW,290,5.0,-999.0,84,-99.99,,,-99.99,,2013-01-02 19:42:00,
2013-01-02 11:52:00,37.0,33.0,30.33,WNW,290,5.0,-999.0,84,-99.99,,,-99.99,,2013-01-02 19:52:00,
2013-01-02 12:00:00,41.0,35.0,30.32,NW,310,2.0,-999.0,77,-99.99,,,-99.99,,2013-01-02 20:00:00,
2013-01-02 12:22:00,41.0,35.0,30.32,NW,310,2.0,-999.0,77,-99.99,,,-99.99,,2013-01-02 20:22:00,
2013-01-02 12:32:00,41.0,35.0,30.32,NW,310,2.0,-999.0,77,-99.99,,,-99.99,,2013-01-02 20:32:00,
2013-01-02 12:42:00,41.0,35.0,30.32,NW,310,2.0,-999.0,77,-99.99,,,-99.99,,2013-01-02 20:42:00,
2013-01-02 12:52:00,41.0,35.0,30.32,NW,310,2.0,-999.0,77,-99.99,,,-99.99,,2013-01-02 20:52:00,
2013-01-02 13:00:00,43.0,36.0,30.29,West,260,3.0,-999.0,76,-99.99,,,-99.99,,2013-01-02 21:00:00,
2013-01-02 13:22:00,43.0,36.0,30.29,West,260,3.0,-999.0,76,-99.99,,,-99.99,,2013-01-02 21:22:00,
2013-01-02 13:32:00,43.0,36.0,30.29,West,260,3.0,-999.0,76,-99.99,,,-99.99,,2013-01-02 21:32:00,
2013-01-02 13:42:00,43.0,36.0,30.29,West,260,3.0,-999.0,76,-99.99,,,-99.99,,2013-01-02 21:42:00,
2013-01-02 13:52:00,43.0,36.0,30.29,West,260,3.0,-999.0,76,-99.99,,,-99.99,,2013-01-02 21:52:00,
2013-01-02 14:00:00,44.0,34.0,30.28,WNW,300,3.0,-999.0,67,-99.99,,,-99.99,,2013-01-02 22:00:00,
2013-01-02 14:22:00,44.0,34.0,30.28,WNW,300,3.0,-999.0,67,-99.99,,,-99.99,,2013-01-02 22:22:00,
2013-01-02 14:32:00,44.0,34.0,30.28,WNW,300,3.0,-999.0,67,-99.99,,,-99.99,,2013-01-02 22:32:00,
2013-01-02 14:42:00,44.0,34.0,30.28,WNW,300,3.0,-999.0,67,-99.99,,,-99.99,,2013-01-02 22:42:00,
2013-01-02 14:52:00,44.0,34.0,30.28,WNW,300,3.0,-999.0,67,-99.99,,,-99.99,,2013-01-02 22:52:00,
2013-01-02 15:00:00,42.0,35.0,30.25,NE,50,7.0,-999.0,73,-99.99,,,-99.99,,2013-01-02 23:00:00,
2013-01-02 15:22:00,42.0,35.0,30.25,NE,50,7.0,-999.0,73,-99.99,,,-99.99,,2013-01-02 23:22:00,
2013-01-02 15:32:00,42.0,35.0,30.25,NE,50,7.0,-999.0,73,-99.99,,,-99.99,,2013-01-02 23:32:00,
2013-01-02 15:42:00,42.0,35.0,30.25,NE,50,7.0,-999.0,73,-99.99,,,-99.99,,2013-01-02 23:42:00,
2013-01-02 15:52:00,42.0,35.0,30.25,NE,50,7.0,-999.0,73,-99.99,,,-99.99,,2013-01-02 23:52:00,
2013-01-02 16:00:00,42.0,35.0,30.27,East,90,1.0,-999.0,75,-99.99,,,-99.99,,2013-01-03 00:00:00,
2013-01-02 16:22:00,42.0,35.0,30.27,East,90,1.0,-999.0,75,-99.99,,,-99.99,,2013-01-03 00:22:00,
2013-01-02 16:32:00,42.0,35.0,30.27,East,90,1.0,-999.0,75,-99.99,,,-99.99,,2013-01-03 00:32:00,
2013-01-02 16:42:00,42.0,35.0,30.27,East,90,1.0,-999.0,75,-99.99,,,-99.99,,2013-01-03 00:42:00,
2013-01-02 16:52:00,42.0,35.0,30.27,East,90,1.0,-999.0,75,-99.99,,,-99.99,,2013-01-03 00:52:00,
2013-01-02 17:00:00,39.0,35.0,30.26,North,0,0.0,-999.0,84,-99.99,,,-99.99,,2013-01-03 01:00:00,
2013-01-02 17:22:00,39.0,35.0,30.26,North,0,0.0,-999.0,84,-99.99,,,-99.99,,2013-01-03 01:22:00,
2013-01-02 17:32:00,39.0,35.0,30.26,North,0,0.0,-999.0,84,-99.99,,,-99.99,,2013-01-03 01:32:00,
2013-01-02 17:42:00,39.0,35.0,30.26,North,0,0.0,-999.0,84,-99.99,,,-99.99,,2013-01-03 01:42:00,
2013-01-02 17:52:00,39.0,35.0,30.26,North,0,0.0,-999.0,84,-99.99,,,-99.99,,2013-01-03 01:52:00,
2013-01-02 18:00:00,38.0,36.0,30.25,WSW,250,1.0,-999.0,91,-99.99,,,-99.99,,2013-01-03 02:00:00,
2013-01-02 18:22:00,38.0,36.0,30.25,WSW,250,1.0,-999.0,91,-99.99,,,-99.99,,2013-01-03 02:22:00,
2013-01-02 18:32:00,38.0,36.0,30.25,WSW,250,1.0,-999.0,91,-99.99,,,-99.99,,2013-01-03 02:32:00,
2013-01-02 18:42:00,38.0,36.0,30.25,WSW,250,1.0,-999.0,91,-99.99,,,-99.99,,2013-01-03 02:42:00,
2013-01-02 18:52:00,38.0,36.0,30.25,WSW,250,1.0,-999.0,91,-99.99,,,-99.99,,2013-01-03 02:52:00,
2013-01-02 19:00:00,39.0,38.0,30.26,WSW,240,2.0,-999.0,96,-99.99,,,-99.99,,2013-01-03 03:00:00,
2013-01-02 19:22:00,39.0,38.0,30.26,WSW,240,2.0,-999.0,96,-99.99,,,-99.99,,2013-01-03 03:22:00,
2013-01-02 19:32:00,39.0,38.0,30.26,WSW,240,2.0,-999.0,96,-99.99,,,-99.99,,2013-01-03 03:32:00,
2013-01-02 19:52:00,39.0,38.0,30.26,WSW,240,2.0,-999.0,96,-99.99,,,-99.99,,2013-01-03 03:52:00,
2013-01-02 20:22:00,37.0,36.0,30.25,WNW,290,6.0,-999.0,95,-99.99,,,-99.99,,2013-01-03 04:22:00,
2013-01-02 20:32:00,37.0,36.0,30.25,WNW,290,6.0,-999.0,95,-99.99,,,-99.99,,2013-01-03 04:32:00,
2013-01-02 20:42:00,37.0,36.0,30.25,WNW,290,6.0,-999.0,95,-99.99,,,-99.99,,2013-01-03 04:42:00,
2013-01-02 20:52:00,37.0,36.0,30.25,WNW,290,6.0,-999.0,95,-99.99,,,-99.99,,2013-01-03 04:52:00,
2013-01-02 21:00:00,36.0,35.0,30.23,WNW,290,3.0,-999.0,96,-99.99,,,-99.99,,2013-01-03 05:00:00,
2013-01-02 21:22:00,36.0,35.0,30.23,WNW,290,3.0,-999.0,96,-99.99,,,-99.99,,2013-01-03 05:22:00,
2013-01-02 21:33:00,36.0,35.0,30.23,WNW,290,3.0,-999.0,96,-99.99,,,-99.99,,2013-01-03 05:33:00,
2013-01-02 21:42:00,36.0,35.0,30.23,WNW,290,3.0,-999.0,96,-99.99,,,-99.99,,2013-01-03 05:42:00,
2013-01-02 21:52:00,36.0,35.0,30.23,WNW,290,3.0,-999.0,96,-99.99,,,-99.99,,2013-01-03 05:52:00,
2013-01-02 22:00:00,35.0,34.0,30.24,NW,310,6.0,-999.0,96,-99.99,,,-99.99,,2013-01-03 06:00:00,
2013-01-02 22:22:00,35.0,34.0,30.24,NW,310,6.0,-999.0,96,-99.99,,,-99.99,,2013-01-03 06:22:00,
2013-01-02 22:32:00,35.0,34.0,30.24,NW,310,6.0,-999.0,96,-99.99,,,-99.99,,2013-01-03 06:32:00,
2013-01-02 22:42:00,35.0,34.0,30.24,NW,310,6.0,-999.0,96,-99.99,,,-99.99,,2013-01-03 06:42:00,
2013-01-02 22:52:00,35.0,34.0,30.24,NW,310,6.0,-999.0,96,-99.99,,,-99.99,,2013-01-03 06:52:00,
2013-01-02 23:00:00,35.0,33.0,30.24,NW,320,5.0,-999.0,93,-99.99,,,-99.99,,2013-01-03 07:00:00,
2013-01-02 23:22:00,35.0,33.0,30.24,NW,320,5.0,-999.0,93,-99.99,,,-99.99,,2013-01-03 07:22:00,
2013-01-02 23:32:00,35.0,33.0,30.24,NW,320,5.0,-999.0,93,-99.99,,,-99.99,,2013-01-03 07:32:00,
2013-01-02 23:42:00,35.0,33.0,30.24,NW,320,5.0,-999.0,93,-99.99,,,-99.99,,2013-01-03 07:42:00,
2013-01-02 23:52:00,35.0,33.0,30.24,NW,320,5.0,-999.0,93,-99.99,,,-99.99,,2013-01-03 07:52:00,